sensor_id;sensor_type;location;lat;lon;timestamp;P1;durP1;ratioP1;P2;durP2;ratioP2
8277;SDS011;4177;50.994;6.210;2022-07-01T00:00:08;16.67;;;12.20;;
8277;SDS011;4177;50.994;6.210;2022-07-01T00:02:34;18.43;;;12.70;;
8277;SDS011;4177;50.994;6.210;2022-07-01T00:04:59;18.87;;;12.90;;
8277;SDS011;4177;50.994;6.210;2022-07-01T00:07:25;20.03;;;12.30;;
8277;SDS011;4177;50.994;6.210;2022-07-01T00:09:51;18.87;;;12.90;;
8277;SDS011;4177;50.994;6.210;2022-07-01T00:12:16;22.33;;;13.73;;
8277;SDS011;4177;50.994;6.210;2022-07-01T00:14:41;18.23;;;13.43;;
8277;SDS011;4177;50.994;6.210;2022-07-01T00:17:07;17.73;;;13.67;;
8277;SDS011;4177;50.994;6.210;2022-07-01T00:19:32;16.43;;;13.30;;
8277;SDS011;4177;50.994;6.210;2022-07-01T00:21:58;17.07;;;13.40;;
8277;SDS011;4177;50.994;6.210;2022-07-01T00:24:24;19.43;;;13.40;;
8277;SDS011;4177;50.994;6.210;2022-07-01T00:26:49;18.63;;;14.30;;
8277;SDS011;4177;50.994;6.210;2022-07-01T00:29:14;19.13;;;13.53;;
8277;SDS011;4177;50.994;6.210;2022-07-01T00:31:40;17.87;;;13.37;;
8277;SDS011;4177;50.994;6.210;2022-07-01T00:34:05;18.93;;;13.33;;
8277;SDS011;4177;50.994;6.210;2022-07-01T00:36:30;15.90;;;12.53;;
8277;SDS011;4177;50.994;6.210;2022-07-01T00:38:57;21.43;;;13.27;;
8277;SDS011;4177;50.994;6.210;2022-07-01T00:41:23;20.50;;;14.43;;
8277;SDS011;4177;50.994;6.210;2022-07-01T00:43:48;17.13;;;13.07;;
8277;SDS011;4177;50.994;6.210;2022-07-01T00:46:13;19.33;;;14.03;;
8277;SDS011;4177;50.994;6.210;2022-07-01T00:48:39;23.13;;;13.43;;
8277;SDS011;4177;50.994;6.210;2022-07-01T00:51:06;21.07;;;12.53;;
8277;SDS011;4177;50.994;6.210;2022-07-01T00:53:32;17.30;;;12.27;;
8277;SDS011;4177;50.994;6.210;2022-07-01T00:55:57;24.57;;;12.43;;
8277;SDS011;4177;50.994;6.210;2022-07-01T00:58:25;16.70;;;11.10;;
8277;SDS011;4177;50.994;6.210;2022-07-01T01:00:52;14.43;;;11.53;;
8277;SDS011;4177;50.994;6.210;2022-07-01T01:03:18;14.50;;;10.33;;
8277;SDS011;4177;50.994;6.210;2022-07-01T01:05:44;13.70;;;10.87;;
8277;SDS011;4177;50.994;6.210;2022-07-01T01:08:09;19.97;;;11.10;;
8277;SDS011;4177;50.994;6.210;2022-07-01T01:10:36;15.37;;;10.23;;
8277;SDS011;4177;50.994;6.210;2022-07-01T01:13:03;12.10;;;8.97;;
8277;SDS011;4177;50.994;6.210;2022-07-01T01:15:29;9.60;;;8.40;;
8277;SDS011;4177;50.994;6.210;2022-07-01T01:17:55;11.73;;;8.80;;
8277;SDS011;4177;50.994;6.210;2022-07-01T01:20:20;12.40;;;8.60;;
8277;SDS011;4177;50.994;6.210;2022-07-01T01:22:46;15.90;;;9.00;;
8277;SDS011;4177;50.994;6.210;2022-07-01T01:25:13;12.10;;;8.27;;
8277;SDS011;4177;50.994;6.210;2022-07-01T01:27:39;14.53;;;7.73;;
8277;SDS011;4177;50.994;6.210;2022-07-01T01:30:04;12.77;;;7.07;;
8277;SDS011;4177;50.994;6.210;2022-07-01T01:32:30;12.83;;;7.20;;
8277;SDS011;4177;50.994;6.210;2022-07-01T01:34:56;15.57;;;7.27;;
8277;SDS011;4177;50.994;6.210;2022-07-01T01:37:21;7.53;;;6.53;;
8277;SDS011;4177;50.994;6.210;2022-07-01T01:39:46;13.63;;;6.70;;
8277;SDS011;4177;50.994;6.210;2022-07-01T01:42:12;10.93;;;6.33;;
8277;SDS011;4177;50.994;6.210;2022-07-01T01:44:37;12.73;;;6.60;;
8277;SDS011;4177;50.994;6.210;2022-07-01T01:47:02;13.70;;;6.37;;
8277;SDS011;4177;50.994;6.210;2022-07-01T01:49:28;12.37;;;5.60;;
8277;SDS011;4177;50.994;6.210;2022-07-01T01:51:54;11.40;;;5.07;;
8277;SDS011;4177;50.994;6.210;2022-07-01T01:54:21;7.77;;;4.73;;
8277;SDS011;4177;50.994;6.210;2022-07-01T01:56:46;12.70;;;5.33;;
8277;SDS011;4177;50.994;6.210;2022-07-01T01:59:12;10.20;;;4.50;;
8277;SDS011;4177;50.994;6.210;2022-07-01T02:01:37;10.07;;;4.23;;
8277;SDS011;4177;50.994;6.210;2022-07-01T02:04:03;6.90;;;3.97;;
8277;SDS011;4177;50.994;6.210;2022-07-01T02:06:28;11.93;;;4.53;;
8277;SDS011;4177;50.994;6.210;2022-07-01T02:08:54;11.57;;;5.03;;
8277;SDS011;4177;50.994;6.210;2022-07-01T02:11:19;11.70;;;4.40;;
8277;SDS011;4177;50.994;6.210;2022-07-01T02:13:44;10.07;;;4.13;;
8277;SDS011;4177;50.994;6.210;2022-07-01T02:16:10;7.00;;;4.77;;
8277;SDS011;4177;50.994;6.210;2022-07-01T02:18:36;10.47;;;5.57;;
8277;SDS011;4177;50.994;6.210;2022-07-01T02:21:02;12.37;;;6.80;;
8277;SDS011;4177;50.994;6.210;2022-07-01T02:23:27;11.87;;;8.37;;
8277;SDS011;4177;50.994;6.210;2022-07-01T02:25:54;15.93;;;10.03;;
8277;SDS011;4177;50.994;6.210;2022-07-01T02:28:20;20.70;;;10.87;;
8277;SDS011;4177;50.994;6.210;2022-07-01T02:30:45;18.77;;;13.33;;
8277;SDS011;4177;50.994;6.210;2022-07-01T02:33:10;17.93;;;13.33;;
8277;SDS011;4177;50.994;6.210;2022-07-01T02:35:36;18.00;;;13.93;;
8277;SDS011;4177;50.994;6.210;2022-07-01T02:38:03;19.70;;;11.63;;
8277;SDS011;4177;50.994;6.210;2022-07-01T02:40:30;17.87;;;11.60;;
8277;SDS011;4177;50.994;6.210;2022-07-01T02:42:56;14.20;;;12.10;;
8277;SDS011;4177;50.994;6.210;2022-07-01T02:45:21;13.07;;;11.67;;
8277;SDS011;4177;50.994;6.210;2022-07-01T02:47:46;15.27;;;13.70;;
8277;SDS011;4177;50.994;6.210;2022-07-01T02:50:13;15.00;;;12.47;;
8277;SDS011;4177;50.994;6.210;2022-07-01T02:52:40;20.37;;;14.63;;
8277;SDS011;4177;50.994;6.210;2022-07-01T02:55:07;16.57;;;15.03;;
8277;SDS011;4177;50.994;6.210;2022-07-01T02:57:35;15.50;;;12.53;;
8277;SDS011;4177;50.994;6.210;2022-07-01T03:00:01;16.80;;;11.07;;
8277;SDS011;4177;50.994;6.210;2022-07-01T03:02:30;10.53;;;8.13;;
8277;SDS011;4177;50.994;6.210;2022-07-01T03:04:57;10.63;;;6.97;;
8277;SDS011;4177;50.994;6.210;2022-07-01T03:07:22;8.60;;;5.57;;
8277;SDS011;4177;50.994;6.210;2022-07-01T03:09:47;14.90;;;6.23;;
8277;SDS011;4177;50.994;6.210;2022-07-01T03:12:13;11.17;;;5.77;;
8277;SDS011;4177;50.994;6.210;2022-07-01T03:14:56;10.73;;;5.53;;
8277;SDS011;4177;50.994;6.210;2022-07-01T03:17:26;8.47;;;5.23;;
8277;SDS011;4177;50.994;6.210;2022-07-01T03:19:53;11.33;;;5.57;;
8277;SDS011;4177;50.994;6.210;2022-07-01T03:22:19;6.07;;;5.37;;
8277;SDS011;4177;50.994;6.210;2022-07-01T03:24:47;10.67;;;5.80;;
8277;SDS011;4177;50.994;6.210;2022-07-01T03:27:13;10.67;;;5.30;;
8277;SDS011;4177;50.994;6.210;2022-07-01T03:29:38;10.33;;;5.53;;
8277;SDS011;4177;50.994;6.210;2022-07-01T03:32:04;10.73;;;5.60;;
8277;SDS011;4177;50.994;6.210;2022-07-01T03:34:29;7.17;;;5.10;;
8277;SDS011;4177;50.994;6.210;2022-07-01T03:36:55;12.60;;;5.80;;
8277;SDS011;4177;50.994;6.210;2022-07-01T03:39:20;12.80;;;5.17;;
8277;SDS011;4177;50.994;6.210;2022-07-01T03:41:45;12.20;;;5.80;;
8277;SDS011;4177;50.994;6.210;2022-07-01T03:44:11;7.83;;;5.63;;
8277;SDS011;4177;50.994;6.210;2022-07-01T03:46:36;9.53;;;5.47;;
8277;SDS011;4177;50.994;6.210;2022-07-01T03:49:02;8.73;;;5.80;;
8277;SDS011;4177;50.994;6.210;2022-07-01T03:51:29;6.60;;;5.63;;
8277;SDS011;4177;50.994;6.210;2022-07-01T03:53:54;8.17;;;5.90;;
8277;SDS011;4177;50.994;6.210;2022-07-01T03:56:38;8.43;;;5.67;;
8277;SDS011;4177;50.994;6.210;2022-07-01T03:59:03;10.97;;;6.33;;
8277;SDS011;4177;50.994;6.210;2022-07-01T04:01:29;8.47;;;5.67;;
8277;SDS011;4177;50.994;6.210;2022-07-01T04:03:54;8.23;;;5.57;;
8277;SDS011;4177;50.994;6.210;2022-07-01T04:06:20;10.53;;;6.07;;
8277;SDS011;4177;50.994;6.210;2022-07-01T04:08:46;13.03;;;6.37;;
8277;SDS011;4177;50.994;6.210;2022-07-01T04:11:12;11.67;;;6.37;;
8277;SDS011;4177;50.994;6.210;2022-07-01T04:13:38;10.43;;;6.63;;
8277;SDS011;4177;50.994;6.210;2022-07-01T04:16:04;7.20;;;6.47;;
8277;SDS011;4177;50.994;6.210;2022-07-01T04:18:31;8.43;;;7.63;;
8277;SDS011;4177;50.994;6.210;2022-07-01T04:20:56;11.83;;;8.60;;
8277;SDS011;4177;50.994;6.210;2022-07-01T04:23:41;11.20;;;10.00;;
8277;SDS011;4177;50.994;6.210;2022-07-01T04:26:06;12.37;;;10.07;;
8277;SDS011;4177;50.994;6.210;2022-07-01T04:28:32;14.10;;;11.67;;
8277;SDS011;4177;50.994;6.210;2022-07-01T04:30:57;14.90;;;11.37;;
8277;SDS011;4177;50.994;6.210;2022-07-01T04:33:22;13.00;;;11.60;;
8277;SDS011;4177;50.994;6.210;2022-07-01T04:35:48;13.40;;;12.13;;
8277;SDS011;4177;50.994;6.210;2022-07-01T04:38:13;18.80;;;10.50;;
8277;SDS011;4177;50.994;6.210;2022-07-01T04:40:39;12.70;;;10.43;;
8277;SDS011;4177;50.994;6.210;2022-07-01T04:43:04;11.00;;;8.73;;
8277;SDS011;4177;50.994;6.210;2022-07-01T04:45:29;9.73;;;8.73;;
8277;SDS011;4177;50.994;6.210;2022-07-01T04:47:55;11.50;;;9.90;;
8277;SDS011;4177;50.994;6.210;2022-07-01T04:50:20;10.33;;;8.07;;
8277;SDS011;4177;50.994;6.210;2022-07-01T04:52:46;10.77;;;8.40;;
8277;SDS011;4177;50.994;6.210;2022-07-01T04:55:11;9.43;;;8.03;;
8277;SDS011;4177;50.994;6.210;2022-07-01T04:57:37;10.10;;;7.60;;
8277;SDS011;4177;50.994;6.210;2022-07-01T05:00:02;12.80;;;8.10;;
8277;SDS011;4177;50.994;6.210;2022-07-01T05:02:29;8.20;;;7.57;;
8277;SDS011;4177;50.994;6.210;2022-07-01T05:04:54;11.03;;;8.20;;
8277;SDS011;4177;50.994;6.210;2022-07-01T05:07:19;9.37;;;8.27;;
8277;SDS011;4177;50.994;6.210;2022-07-01T05:09:54;10.97;;;6.70;;
8277;SDS011;4177;50.994;6.210;2022-07-01T05:12:21;9.07;;;6.03;;
8277;SDS011;4177;50.994;6.210;2022-07-01T05:14:47;10.27;;;5.53;;
8277;SDS011;4177;50.994;6.210;2022-07-01T05:17:12;9.27;;;4.73;;
8277;SDS011;4177;50.994;6.210;2022-07-01T05:19:38;6.30;;;4.63;;
8277;SDS011;4177;50.994;6.210;2022-07-01T05:22:29;6.13;;;4.10;;
8277;SDS011;4177;50.994;6.210;2022-07-01T05:24:55;7.83;;;4.37;;
8277;SDS011;4177;50.994;6.210;2022-07-01T05:27:20;9.60;;;4.40;;
8277;SDS011;4177;50.994;6.210;2022-07-01T05:29:48;4.73;;;3.67;;
8277;SDS011;4177;50.994;6.210;2022-07-01T05:32:14;5.67;;;3.53;;
8277;SDS011;4177;50.994;6.210;2022-07-01T05:34:39;8.13;;;4.03;;
8277;SDS011;4177;50.994;6.210;2022-07-01T05:37:05;7.07;;;4.57;;
8277;SDS011;4177;50.994;6.210;2022-07-01T05:39:31;5.73;;;4.07;;
8277;SDS011;4177;50.994;6.210;2022-07-01T05:41:56;8.33;;;4.13;;
8277;SDS011;4177;50.994;6.210;2022-07-01T05:44:21;6.23;;;4.43;;
8277;SDS011;4177;50.994;6.210;2022-07-01T05:46:47;6.03;;;4.17;;
8277;SDS011;4177;50.994;6.210;2022-07-01T05:49:12;6.00;;;4.60;;
8277;SDS011;4177;50.994;6.210;2022-07-01T05:51:37;8.53;;;4.53;;
8277;SDS011;4177;50.994;6.210;2022-07-01T05:54:02;6.30;;;4.10;;
8277;SDS011;4177;50.994;6.210;2022-07-01T05:56:28;8.43;;;4.60;;
8277;SDS011;4177;50.994;6.210;2022-07-01T05:58:53;8.23;;;5.03;;
8277;SDS011;4177;50.994;6.210;2022-07-01T06:01:19;7.73;;;4.57;;
8277;SDS011;4177;50.994;6.210;2022-07-01T06:03:44;6.63;;;4.47;;
8277;SDS011;4177;50.994;6.210;2022-07-01T06:06:10;11.03;;;5.13;;
8277;SDS011;4177;50.994;6.210;2022-07-01T06:08:35;6.57;;;4.83;;
8277;SDS011;4177;50.994;6.210;2022-07-01T06:11:00;8.77;;;4.93;;
8277;SDS011;4177;50.994;6.210;2022-07-01T06:13:26;9.43;;;5.53;;
8277;SDS011;4177;50.994;6.210;2022-07-01T06:15:53;7.10;;;5.00;;
8277;SDS011;4177;50.994;6.210;2022-07-01T06:18:19;8.00;;;5.10;;
8277;SDS011;4177;50.994;6.210;2022-07-01T06:20:44;8.27;;;5.40;;
8277;SDS011;4177;50.994;6.210;2022-07-01T06:23:10;5.30;;;4.90;;
8277;SDS011;4177;50.994;6.210;2022-07-01T06:25:35;6.07;;;4.60;;
8277;SDS011;4177;50.994;6.210;2022-07-01T06:28:00;5.40;;;4.77;;
8277;SDS011;4177;50.994;6.210;2022-07-01T06:30:26;7.00;;;5.03;;
8277;SDS011;4177;50.994;6.210;2022-07-01T06:32:53;7.20;;;4.93;;
8277;SDS011;4177;50.994;6.210;2022-07-01T06:35:19;7.37;;;4.90;;
8277;SDS011;4177;50.994;6.210;2022-07-01T06:37:44;5.77;;;4.23;;
8277;SDS011;4177;50.994;6.210;2022-07-01T06:40:09;8.53;;;4.47;;
8277;SDS011;4177;50.994;6.210;2022-07-01T06:42:35;8.33;;;4.77;;
8277;SDS011;4177;50.994;6.210;2022-07-01T06:45:00;9.30;;;4.17;;
8277;SDS011;4177;50.994;6.210;2022-07-01T06:47:26;7.90;;;4.20;;
8277;SDS011;4177;50.994;6.210;2022-07-01T06:49:52;6.20;;;3.87;;
8277;SDS011;4177;50.994;6.210;2022-07-01T06:52:17;5.57;;;4.00;;
8277;SDS011;4177;50.994;6.210;2022-07-01T06:54:42;9.93;;;3.43;;
8277;SDS011;4177;50.994;6.210;2022-07-01T06:57:08;8.83;;;3.50;;
8277;SDS011;4177;50.994;6.210;2022-07-01T06:59:33;6.07;;;3.43;;
8277;SDS011;4177;50.994;6.210;2022-07-01T07:01:58;7.70;;;3.70;;
8277;SDS011;4177;50.994;6.210;2022-07-01T07:04:24;3.80;;;3.00;;
8277;SDS011;4177;50.994;6.210;2022-07-01T07:06:50;5.00;;;2.80;;
8277;SDS011;4177;50.994;6.210;2022-07-01T07:09:16;6.57;;;3.30;;
8277;SDS011;4177;50.994;6.210;2022-07-01T07:11:42;5.90;;;3.40;;
8277;SDS011;4177;50.994;6.210;2022-07-01T07:14:07;5.00;;;3.27;;
8277;SDS011;4177;50.994;6.210;2022-07-01T07:16:32;5.83;;;3.20;;
8277;SDS011;4177;50.994;6.210;2022-07-01T07:18:58;6.50;;;3.63;;
8277;SDS011;4177;50.994;6.210;2022-07-01T07:21:23;5.20;;;3.00;;
8277;SDS011;4177;50.994;6.210;2022-07-01T07:23:48;5.67;;;3.13;;
8277;SDS011;4177;50.994;6.210;2022-07-01T07:26:14;5.47;;;3.20;;
8277;SDS011;4177;50.994;6.210;2022-07-01T07:28:39;7.07;;;3.10;;
8277;SDS011;4177;50.994;6.210;2022-07-01T07:31:04;5.27;;;3.40;;
8277;SDS011;4177;50.994;6.210;2022-07-01T07:33:30;5.43;;;2.97;;
8277;SDS011;4177;50.994;6.210;2022-07-01T07:35:55;5.50;;;2.73;;
8277;SDS011;4177;50.994;6.210;2022-07-01T07:38:20;5.87;;;2.80;;
8277;SDS011;4177;50.994;6.210;2022-07-01T07:40:46;6.93;;;2.87;;
8277;SDS011;4177;50.994;6.210;2022-07-01T07:43:11;8.60;;;3.10;;
8277;SDS011;4177;50.994;6.210;2022-07-01T07:45:37;5.10;;;2.80;;
8277;SDS011;4177;50.994;6.210;2022-07-01T07:48:02;7.60;;;2.80;;
8277;SDS011;4177;50.994;6.210;2022-07-01T07:50:31;7.23;;;3.30;;
8277;SDS011;4177;50.994;6.210;2022-07-01T07:52:57;6.53;;;3.20;;
8277;SDS011;4177;50.994;6.210;2022-07-01T07:55:22;7.70;;;3.50;;
8277;SDS011;4177;50.994;6.210;2022-07-01T07:57:47;7.30;;;3.40;;
8277;SDS011;4177;50.994;6.210;2022-07-01T08:00:13;7.80;;;3.10;;
8277;SDS011;4177;50.994;6.210;2022-07-01T08:02:39;6.03;;;3.10;;
8277;SDS011;4177;50.994;6.210;2022-07-01T08:05:06;4.17;;;3.20;;
8277;SDS011;4177;50.994;6.210;2022-07-01T08:07:36;5.73;;;3.10;;
8277;SDS011;4177;50.994;6.210;2022-07-01T08:10:03;6.63;;;2.90;;
8277;SDS011;4177;50.994;6.210;2022-07-01T08:12:33;7.23;;;2.60;;
8277;SDS011;4177;50.994;6.210;2022-07-01T08:14:58;5.13;;;2.90;;
8277;SDS011;4177;50.994;6.210;2022-07-01T08:17:25;2.60;;;2.40;;
8277;SDS011;4177;50.994;6.210;2022-07-01T08:19:51;6.73;;;2.50;;
8277;SDS011;4177;50.994;6.210;2022-07-01T08:22:16;5.10;;;2.30;;
8277;SDS011;4177;50.994;6.210;2022-07-01T08:24:42;4.77;;;2.37;;
8277;SDS011;4177;50.994;6.210;2022-07-01T08:27:07;2.53;;;2.33;;
8277;SDS011;4177;50.994;6.210;2022-07-01T08:29:33;5.07;;;2.40;;
8277;SDS011;4177;50.994;6.210;2022-07-01T08:31:58;4.57;;;2.23;;
8277;SDS011;4177;50.994;6.210;2022-07-01T08:34:24;4.23;;;2.10;;
8277;SDS011;4177;50.994;6.210;2022-07-01T08:36:49;3.03;;;2.00;;
8277;SDS011;4177;50.994;6.210;2022-07-01T08:39:14;3.83;;;2.00;;
8277;SDS011;4177;50.994;6.210;2022-07-01T08:41:40;5.37;;;2.07;;
8277;SDS011;4177;50.994;6.210;2022-07-01T08:44:06;5.33;;;2.07;;
8277;SDS011;4177;50.994;6.210;2022-07-01T08:46:33;2.70;;;1.57;;
8277;SDS011;4177;50.994;6.210;2022-07-01T08:49:00;2.00;;;1.37;;
8277;SDS011;4177;50.994;6.210;2022-07-01T08:51:26;2.27;;;1.77;;
8277;SDS011;4177;50.994;6.210;2022-07-01T08:53:52;3.20;;;1.63;;
8277;SDS011;4177;50.994;6.210;2022-07-01T08:56:17;4.37;;;1.57;;
8277;SDS011;4177;50.994;6.210;2022-07-01T08:59:01;2.10;;;1.30;;
8277;SDS011;4177;50.994;6.210;2022-07-01T09:01:26;2.60;;;1.63;;
8277;SDS011;4177;50.994;6.210;2022-07-01T09:03:55;3.67;;;1.60;;
8277;SDS011;4177;50.994;6.210;2022-07-01T09:06:28;3.80;;;1.50;;
8277;SDS011;4177;50.994;6.210;2022-07-01T09:08:54;2.70;;;1.63;;
8277;SDS011;4177;50.994;6.210;2022-07-01T09:11:20;2.47;;;1.50;;
8277;SDS011;4177;50.994;6.210;2022-07-01T09:16:35;1.97;;;1.60;;
8277;SDS011;4177;50.994;6.210;2022-07-01T09:19:05;2.00;;;1.23;;
8277;SDS011;4177;50.994;6.210;2022-07-01T09:21:30;3.43;;;1.30;;
8277;SDS011;4177;50.994;6.210;2022-07-01T09:23:57;5.83;;;1.40;;
8277;SDS011;4177;50.994;6.210;2022-07-01T09:26:23;1.77;;;1.37;;
8277;SDS011;4177;50.994;6.210;2022-07-01T09:28:55;2.90;;;1.33;;
8277;SDS011;4177;50.994;6.210;2022-07-01T09:31:22;2.50;;;1.60;;
8277;SDS011;4177;50.994;6.210;2022-07-01T09:34:06;3.27;;;1.70;;
8277;SDS011;4177;50.994;6.210;2022-07-01T09:36:38;1.93;;;1.40;;
8277;SDS011;4177;50.994;6.210;2022-07-01T09:39:05;2.27;;;1.30;;
8277;SDS011;4177;50.994;6.210;2022-07-01T09:41:37;2.53;;;1.60;;
8277;SDS011;4177;50.994;6.210;2022-07-01T09:44:03;1.70;;;1.33;;
8277;SDS011;4177;50.994;6.210;2022-07-01T09:46:32;4.90;;;1.30;;
8277;SDS011;4177;50.994;6.210;2022-07-01T09:48:58;4.33;;;1.50;;
8277;SDS011;4177;50.994;6.210;2022-07-01T09:51:24;2.67;;;1.83;;
8277;SDS011;4177;50.994;6.210;2022-07-01T09:53:49;2.07;;;1.50;;
8277;SDS011;4177;50.994;6.210;2022-07-01T09:56:15;2.23;;;1.50;;
8277;SDS011;4177;50.994;6.210;2022-07-01T09:58:40;1.93;;;1.40;;
8277;SDS011;4177;50.994;6.210;2022-07-01T10:01:10;5.70;;;1.50;;
8277;SDS011;4177;50.994;6.210;2022-07-01T10:03:38;1.40;;;1.30;;
8277;SDS011;4177;50.994;6.210;2022-07-01T10:11:48;3.10;;;1.60;;
8277;SDS011;4177;50.994;6.210;2022-07-01T10:14:27;2.83;;;1.37;;
8277;SDS011;4177;50.994;6.210;2022-07-01T10:16:55;5.03;;;1.20;;
8277;SDS011;4177;50.994;6.210;2022-07-01T10:21:48;4.30;;;1.27;;
8277;SDS011;4177;50.994;6.210;2022-07-01T10:24:14;2.17;;;1.10;;
8277;SDS011;4177;50.994;6.210;2022-07-01T10:26:41;1.50;;;1.30;;
8277;SDS011;4177;50.994;6.210;2022-07-01T10:29:26;2.17;;;1.07;;
8277;SDS011;4177;50.994;6.210;2022-07-01T10:31:53;2.83;;;1.20;;
8277;SDS011;4177;50.994;6.210;2022-07-01T10:34:18;1.87;;;1.07;;
8277;SDS011;4177;50.994;6.210;2022-07-01T10:36:45;1.23;;;1.13;;
8277;SDS011;4177;50.994;6.210;2022-07-01T10:39:25;2.97;;;1.27;;
8277;SDS011;4177;50.994;6.210;2022-07-01T10:44:18;4.53;;;1.50;;
8277;SDS011;4177;50.994;6.210;2022-07-01T10:46:45;3.13;;;1.10;;
8277;SDS011;4177;50.994;6.210;2022-07-01T10:54:44;1.67;;;1.20;;
8277;SDS011;4177;50.994;6.210;2022-07-01T10:59:40;3.03;;;1.30;;
8277;SDS011;4177;50.994;6.210;2022-07-01T11:02:12;2.57;;;1.37;;
8277;SDS011;4177;50.994;6.210;2022-07-01T11:04:40;2.03;;;1.20;;
8277;SDS011;4177;50.994;6.210;2022-07-01T11:07:06;2.23;;;1.30;;
8277;SDS011;4177;50.994;6.210;2022-07-01T11:09:32;3.23;;;1.60;;
8277;SDS011;4177;50.994;6.210;2022-07-01T11:11:58;1.90;;;1.33;;
8277;SDS011;4177;50.994;6.210;2022-07-01T11:14:24;2.33;;;1.10;;
8277;SDS011;4177;50.994;6.210;2022-07-01T11:16:51;1.60;;;1.00;;
8277;SDS011;4177;50.994;6.210;2022-07-01T11:19:19;2.57;;;1.10;;
8277;SDS011;4177;50.994;6.210;2022-07-01T11:21:48;2.13;;;1.13;;
8277;SDS011;4177;50.994;6.210;2022-07-01T11:24:16;3.20;;;1.23;;
8277;SDS011;4177;50.994;6.210;2022-07-01T11:26:42;2.73;;;1.10;;
8277;SDS011;4177;50.994;6.210;2022-07-01T11:29:11;1.80;;;1.10;;
8277;SDS011;4177;50.994;6.210;2022-07-01T11:31:40;2.57;;;1.00;;
8277;SDS011;4177;50.994;6.210;2022-07-01T11:34:06;1.23;;;1.10;;
8277;SDS011;4177;50.994;6.210;2022-07-01T11:36:32;5.53;;;1.83;;
8277;SDS011;4177;50.994;6.210;2022-07-01T11:39:17;3.00;;;1.40;;
8277;SDS011;4177;50.994;6.210;2022-07-01T11:41:53;2.47;;;1.20;;
8277;SDS011;4177;50.994;6.210;2022-07-01T11:44:29;1.93;;;1.23;;
8277;SDS011;4177;50.994;6.210;2022-07-01T11:47:07;1.57;;;1.27;;
8277;SDS011;4177;50.994;6.210;2022-07-01T11:49:34;3.40;;;1.27;;
8277;SDS011;4177;50.994;6.210;2022-07-01T11:52:08;1.50;;;1.13;;
8277;SDS011;4177;50.994;6.210;2022-07-01T11:54:41;3.20;;;1.20;;
8277;SDS011;4177;50.994;6.210;2022-07-01T11:57:10;1.40;;;1.20;;
8277;SDS011;4177;50.994;6.210;2022-07-01T11:59:41;2.07;;;1.27;;
8277;SDS011;4177;50.994;6.210;2022-07-01T12:02:08;3.33;;;1.10;;
8277;SDS011;4177;50.994;6.210;2022-07-01T12:04:35;2.03;;;0.97;;
8277;SDS011;4177;50.994;6.210;2022-07-01T12:07:01;1.77;;;1.30;;
8277;SDS011;4177;50.994;6.210;2022-07-01T12:09:27;3.00;;;1.20;;
8277;SDS011;4177;50.994;6.210;2022-07-01T12:11:53;2.30;;;1.20;;
8277;SDS011;4177;50.994;6.210;2022-07-01T12:14:22;3.03;;;1.47;;
8277;SDS011;4177;50.994;6.210;2022-07-01T12:16:53;3.10;;;1.27;;
8277;SDS011;4177;50.994;6.210;2022-07-01T12:19:26;3.67;;;1.43;;
8277;SDS011;4177;50.994;6.210;2022-07-01T12:22:11;1.83;;;1.13;;
8277;SDS011;4177;50.994;6.210;2022-07-01T12:24:38;2.77;;;1.40;;
8277;SDS011;4177;50.994;6.210;2022-07-01T12:27:08;1.93;;;1.17;;
8277;SDS011;4177;50.994;6.210;2022-07-01T12:32:10;3.40;;;1.10;;
8277;SDS011;4177;50.994;6.210;2022-07-01T12:37:13;3.00;;;1.30;;
8277;SDS011;4177;50.994;6.210;2022-07-01T12:39:48;3.10;;;1.30;;
8277;SDS011;4177;50.994;6.210;2022-07-01T12:44:47;2.83;;;1.23;;
8277;SDS011;4177;50.994;6.210;2022-07-01T12:47:16;1.77;;;1.20;;
8277;SDS011;4177;50.994;6.210;2022-07-01T12:49:45;2.63;;;1.00;;
8277;SDS011;4177;50.994;6.210;2022-07-01T12:52:24;1.33;;;1.20;;
8277;SDS011;4177;50.994;6.210;2022-07-01T12:54:54;1.77;;;1.10;;
8277;SDS011;4177;50.994;6.210;2022-07-01T12:57:31;3.43;;;1.30;;
8277;SDS011;4177;50.994;6.210;2022-07-01T12:59:57;1.80;;;1.30;;
8277;SDS011;4177;50.994;6.210;2022-07-01T13:02:23;1.40;;;1.30;;
8277;SDS011;4177;50.994;6.210;2022-07-01T13:04:48;1.97;;;1.30;;
8277;SDS011;4177;50.994;6.210;2022-07-01T13:07:14;4.67;;;1.20;;
8277;SDS011;4177;50.994;6.210;2022-07-01T13:09:39;3.10;;;1.60;;
8277;SDS011;4177;50.994;6.210;2022-07-01T13:12:05;2.90;;;1.20;;
8277;SDS011;4177;50.994;6.210;2022-07-01T13:14:30;1.80;;;1.23;;
8277;SDS011;4177;50.994;6.210;2022-07-01T13:16:56;2.60;;;1.27;;
8277;SDS011;4177;50.994;6.210;2022-07-01T13:19:21;1.53;;;1.00;;
8277;SDS011;4177;50.994;6.210;2022-07-01T13:21:46;2.30;;;1.20;;
8277;SDS011;4177;50.994;6.210;2022-07-01T13:24:12;3.47;;;1.37;;
8277;SDS011;4177;50.994;6.210;2022-07-01T13:26:40;3.83;;;1.00;;
8277;SDS011;4177;50.994;6.210;2022-07-01T13:29:05;2.90;;;1.10;;
8277;SDS011;4177;50.994;6.210;2022-07-01T13:31:31;2.77;;;1.50;;
8277;SDS011;4177;50.994;6.210;2022-07-01T13:33:57;3.07;;;1.30;;
8277;SDS011;4177;50.994;6.210;2022-07-01T13:36:22;2.83;;;1.03;;
8277;SDS011;4177;50.994;6.210;2022-07-01T13:38:49;1.80;;;1.00;;
8277;SDS011;4177;50.994;6.210;2022-07-01T13:41:17;6.20;;;1.40;;
8277;SDS011;4177;50.994;6.210;2022-07-01T13:43:42;1.83;;;1.20;;
8277;SDS011;4177;50.994;6.210;2022-07-01T13:46:08;1.30;;;1.00;;
8277;SDS011;4177;50.994;6.210;2022-07-01T13:48:33;1.43;;;1.00;;
8277;SDS011;4177;50.994;6.210;2022-07-01T13:50:59;1.93;;;1.03;;
8277;SDS011;4177;50.994;6.210;2022-07-01T13:53:24;1.75;;;1.38;;
8277;SDS011;4177;50.994;6.210;2022-07-01T13:55:49;1.33;;;1.15;;
8277;SDS011;4177;50.994;6.210;2022-07-01T13:58:15;1.40;;;1.25;;
8277;SDS011;4177;50.994;6.210;2022-07-01T14:00:41;3.53;;;1.30;;
8277;SDS011;4177;50.994;6.210;2022-07-01T14:03:06;2.28;;;1.50;;
8277;SDS011;4177;50.994;6.210;2022-07-01T14:05:35;1.47;;;1.20;;
8277;SDS011;4177;50.994;6.210;2022-07-01T14:08:00;2.33;;;1.08;;
8277;SDS011;4177;50.994;6.210;2022-07-01T14:10:29;2.47;;;1.30;;
8277;SDS011;4177;50.994;6.210;2022-07-01T14:12:55;1.30;;;1.00;;
8277;SDS011;4177;50.994;6.210;2022-07-01T14:15:20;1.95;;;1.05;;
8277;SDS011;4177;50.994;6.210;2022-07-01T14:17:46;1.90;;;1.30;;
8277;SDS011;4177;50.994;6.210;2022-07-01T14:20:11;1.17;;;1.07;;
8277;SDS011;4177;50.994;6.210;2022-07-01T14:22:37;1.30;;;1.20;;
8277;SDS011;4177;50.994;6.210;2022-07-01T14:25:03;1.55;;;1.10;;
8277;SDS011;4177;50.994;6.210;2022-07-01T14:27:28;0.90;;;0.90;;
8277;SDS011;4177;50.994;6.210;2022-07-01T14:29:54;4.38;;;1.10;;
8277;SDS011;4177;50.994;6.210;2022-07-01T14:32:19;1.20;;;1.10;;
8277;SDS011;4177;50.994;6.210;2022-07-01T14:34:49;1.90;;;0.80;;
8277;SDS011;4177;50.994;6.210;2022-07-01T14:37:15;1.27;;;0.90;;
8277;SDS011;4177;50.994;6.210;2022-07-01T14:39:40;2.78;;;0.80;;
8277;SDS011;4177;50.994;6.210;2022-07-01T14:42:08;1.10;;;1.00;;
8277;SDS011;4177;50.994;6.210;2022-07-01T14:44:33;1.15;;;1.08;;
8277;SDS011;4177;50.994;6.210;2022-07-01T14:46:59;4.67;;;1.10;;
8277;SDS011;4177;50.994;6.210;2022-07-01T14:49:24;1.55;;;0.93;;
8277;SDS011;4177;50.994;6.210;2022-07-01T14:51:50;2.78;;;1.00;;
8277;SDS011;4177;50.994;6.210;2022-07-01T14:54:16;1.92;;;0.80;;
8277;SDS011;4177;50.994;6.210;2022-07-01T14:56:41;1.50;;;0.88;;
8277;SDS011;4177;50.994;6.210;2022-07-01T14:59:06;3.50;;;0.88;;
8277;SDS011;4177;50.994;6.210;2022-07-01T15:01:32;2.17;;;0.90;;
8277;SDS011;4177;50.994;6.210;2022-07-01T15:03:58;1.10;;;0.80;;
8277;SDS011;4177;50.994;6.210;2022-07-01T15:06:23;1.10;;;0.80;;
8277;SDS011;4177;50.994;6.210;2022-07-01T15:08:48;0.85;;;0.85;;
8277;SDS011;4177;50.994;6.210;2022-07-01T15:11:14;2.42;;;0.70;;
8277;SDS011;4177;50.994;6.210;2022-07-01T15:13:39;1.63;;;0.82;;
8277;SDS011;4177;50.994;6.210;2022-07-01T15:16:05;1.33;;;0.63;;
8277;SDS011;4177;50.994;6.210;2022-07-01T15:18:30;2.17;;;0.80;;
8277;SDS011;4177;50.994;6.210;2022-07-01T15:20:57;1.35;;;0.65;;
8277;SDS011;4177;50.994;6.210;2022-07-01T15:23:23;2.97;;;0.70;;
8277;SDS011;4177;50.994;6.210;2022-07-01T15:25:48;1.90;;;0.90;;
8277;SDS011;4177;50.994;6.210;2022-07-01T15:28:14;2.70;;;0.93;;
8277;SDS011;4177;50.994;6.210;2022-07-01T15:30:39;1.47;;;1.10;;
8277;SDS011;4177;50.994;6.210;2022-07-01T15:33:05;0.80;;;0.80;;
8277;SDS011;4177;50.994;6.210;2022-07-01T15:35:30;6.32;;;1.10;;